MASCOMA R @ MASCOMA: From 11/04/2019 09:00 to 11/18/2019 16:00

Date STAGE [FT] FLOW [CFS] LAKE ELEVATION [FT] PRECIPITATION INCREMENT [IN] AIR TEMPERATURE [F]
11/18/2019 10:00 3.07 240.8 748.39 0.00 29.1
11/18/2019 09:00 3.07 240.8 748.39 0.00 27.7
11/18/2019 08:00 3.07 240.8 748.40 0.00 26.7
11/18/2019 07:00 3.06 237.1 748.39 0.00 27.6
11/18/2019 06:00 3.06 237.1 748.39 0.00 28.2
11/18/2019 05:00 3.06 237.1 748.40 0.00 29.2
11/18/2019 04:00 3.07 240.8 748.40 0.00 29.4
11/18/2019 03:00 3.08 244.5 748.40 0.00 29.5
11/18/2019 02:00 3.08 244.5 748.40 0.00 31.3
11/18/2019 01:00 3.08 244.5 748.40 0.00 30.8
11/18/2019 00:00 3.09 248.2 748.40 0.00 30.5
11/17/2019 23:00 3.10 252.0 748.41 0.00 30.3
11/17/2019 22:00 3.10 252.0 748.41 0.00 29.8
11/17/2019 21:00 3.10 252.0 748.41 0.00 29.3
11/17/2019 20:00 3.10 252.0 748.41 0.00 28.2
11/17/2019 19:00 3.10 252.0 748.41 0.00 25.7
11/17/2019 18:00 3.11 255.7 748.41 0.00 28.3
11/17/2019 17:00 3.12 259.5 748.41 0.00 31.8
11/17/2019 16:00 3.12 259.5 748.42 0.00 33.6
11/17/2019 15:00 3.12 259.5 748.41 0.00 36.2
11/17/2019 14:00 3.11 255.7 748.41 0.00 33.5
11/17/2019 13:00 3.11 255.7 748.41 0.00 31.3
11/17/2019 12:00 3.13 263.3 748.42 0.00 29.0
11/17/2019 11:00 3.14 267.1 748.42 0.00 19.9
11/17/2019 10:00 3.14 267.1 748.43 0.00 16.2
11/17/2019 09:00 3.14 267.1 748.43 0.00 16.0
11/17/2019 08:00 3.13 263.3 748.43 0.00 12.2
11/17/2019 07:00 3.14 267.1 748.43 0.00 11.2
11/17/2019 06:00 3.15 270.9 748.44 0.00 12.4
11/17/2019 05:00 3.14 267.1 748.44 0.00 12.5
11/17/2019 04:00 3.14 267.1 748.44 0.00 12.6
11/17/2019 03:00 3.14 267.1 748.44 0.00 12.8
11/17/2019 02:00 3.15 270.9 748.45 0.00 14.1
11/17/2019 01:00 3.15 270.9 748.45 0.00 15.3
11/17/2019 00:00 3.15 270.9 748.45 0.00 16.2
11/16/2019 23:00 3.15 270.9 748.45 0.00 16.4
11/16/2019 22:00 3.15 270.9 748.45 0.00 18.5
11/16/2019 21:00 3.14 267.1 748.45 0.00 18.6
11/16/2019 20:00 3.14 267.1 748.46 0.00 19.8
11/16/2019 19:00 3.16 274.7 748.46 0.00 22.0
11/16/2019 18:00 3.16 274.7 748.46 0.00 23.4
11/16/2019 17:00 3.16 274.7 748.46 0.00 25.0
11/16/2019 16:00 3.15 270.9 748.46 0.00 27.3
11/16/2019 15:00 3.15 270.9 748.46 0.00 31.6
11/16/2019 14:00 3.15 270.9 748.46 0.00 30.9
11/16/2019 13:00 3.15 270.9 748.46 0.00 30.3
11/16/2019 12:00 3.15 270.9 748.46 0.00 27.5
11/16/2019 11:00 3.15 270.9 748.47 0.00 28.1
11/16/2019 10:00 3.16 274.7 748.47 0.00 24.5
11/16/2019 09:00 3.17 278.5 748.48 0.00 19.1
11/16/2019 08:00 3.17 278.5 748.48 0.00 16.1
11/16/2019 07:00 3.17 278.5 748.48 0.00 16.4
11/16/2019 06:00 3.16 274.7 748.48 0.00 18.0
11/16/2019 05:00 3.15 270.9 748.48 0.00 19.4
11/16/2019 04:00 3.15 270.9 748.48 0.00 21.4
11/16/2019 03:00 3.15 270.9 748.47 0.00 23.0
11/16/2019 02:00 3.16 274.7 748.47 0.00 25.3
11/16/2019 01:00 3.15 270.9 748.47 0.00 27.8
11/16/2019 00:00 3.13 263.3 748.47 0.00 30.0
11/15/2019 23:00 3.11 255.7 748.46 0.00 31.6
11/15/2019 22:00 3.11 255.7 748.47 0.00 33.1
11/15/2019 21:00 3.15 270.9 748.48 0.00 37.6
11/15/2019 20:00 3.14 267.1 748.48 0.00 37.9
11/15/2019 19:00 3.15 270.9 748.49 0.00 38.7
11/15/2019 18:00 3.16 274.7 748.49 0.00 39.1
11/15/2019 17:00 3.15 270.9 748.50 0.00 39.9
11/15/2019 16:00 3.15 270.9 748.50 0.00 41.1
11/15/2019 15:00 3.16 274.7 748.50 0.05 46.4
11/15/2019 14:00 3.16 274.7 748.50 0.09 48.0
11/15/2019 13:00 3.14 267.1 748.49 0.10 45.3
11/15/2019 12:00 3.16 274.7 748.50 0.00 45.2
11/15/2019 11:00 3.17 278.5 748.50 0.00 44.3
11/15/2019 10:00 3.16 274.7 748.50 0.00 35.4
11/15/2019 09:00 3.17 278.5 748.51 0.00 37.0
11/15/2019 08:00 3.17 278.5 748.51 0.00 25.6
11/15/2019 07:00 3.17 278.5 748.51 0.00 27.4
11/15/2019 06:00 3.17 278.5 748.51 0.00 27.4
11/15/2019 05:00 3.17 278.5 748.51 0.00 27.9
11/15/2019 04:00 3.17 278.5 748.51 0.00 27.6
11/15/2019 03:00 3.18 282.3 748.52 0.00 27.0
11/15/2019 02:00 3.18 282.3 748.52 0.00 26.5
11/15/2019 01:00 3.19 286.2 748.52 0.00 26.2
11/15/2019 00:00 3.18 282.3 748.52 0.00 26.5
11/14/2019 23:00 3.19 286.2 748.52 0.00 26.9
11/14/2019 22:00 3.19 286.2 748.53 0.00 26.2
11/14/2019 21:00 3.20 290.0 748.53 0.00 26.4
11/14/2019 20:00 3.20 290.0 748.54 0.00 26.0
11/14/2019 19:00 3.21 293.9 748.54 0.00 26.0
11/14/2019 18:00 3.20 290.0 748.54 0.00 26.0
11/14/2019 17:00 3.20 290.0 748.54 0.00 26.3
11/14/2019 16:00 3.21 293.9 748.55 0.00 27.4
11/14/2019 15:00 3.21 293.9 748.55 0.00 26.5
11/14/2019 14:00 3.21 293.9 748.55 0.00 25.3
11/14/2019 13:00 3.21 293.9 748.55 0.00 23.3
11/14/2019 12:00 3.22 297.7 748.56 0.00 22.6
11/14/2019 11:00 3.22 297.7 748.56 0.00 21.0
11/14/2019 10:00 3.22 297.7 748.56 0.00 19.2
11/14/2019 09:00 3.23 301.6 748.56 0.00 17.2
11/14/2019 08:00 3.23 301.6 748.57 0.00 15.8
11/14/2019 07:00 3.23 301.6 748.58 0.00 14.5
11/14/2019 06:00 3.23 301.6 748.58 0.00 14.2
11/14/2019 05:00 3.23 301.6 748.58 0.00 15.7
11/14/2019 04:00 3.23 301.6 748.58 0.00 15.4
11/14/2019 03:00 3.23 301.6 748.58 0.00 15.6
11/14/2019 02:00 3.23 301.6 748.58 0.00 15.7
11/14/2019 01:00 3.23 301.6 748.59 0.00 15.1
11/14/2019 00:00 3.23 301.6 748.59 0.00 15.5
11/13/2019 23:00 3.25 309.4 748.60 0.00 15.4
11/13/2019 22:00 3.24 305.5 748.60 0.00 14.9
11/13/2019 21:00 3.24 305.5 748.60 0.00 15.9
11/13/2019 20:00 3.25 309.4 748.61 0.00 14.7
11/13/2019 19:00 3.25 309.4 748.61 0.00 17.5
11/13/2019 18:00 3.26 313.3 748.61 0.00 19.7
11/13/2019 17:00 3.25 309.4 748.61 0.00 22.2
11/13/2019 16:00 3.25 309.4 748.61 0.00 23.2
11/13/2019 15:00 3.24 305.5 748.61 0.00 23.5
11/13/2019 14:00 3.25 309.4 748.62 0.00 25.5
11/13/2019 13:00 3.24 305.5 748.62 0.00 23.2
11/13/2019 12:00 3.26 313.3 748.63 0.00 22.1
11/13/2019 11:00 3.26 313.3 748.63 0.00 20.9
11/13/2019 10:00 3.26 313.3 748.63 0.00 19.3
11/13/2019 09:00 3.26 313.3 748.64 0.00 19.0
11/13/2019 08:00 3.26 313.3 748.64 0.00 12.0
11/13/2019 07:00 3.26 313.3 748.64 0.00 10.6
11/13/2019 06:00 3.27 317.2 748.65 0.00 11.0
11/13/2019 05:00 3.26 313.3 748.65 0.00 11.7
11/13/2019 04:00 3.27 317.2 748.65 0.00 12.0
11/13/2019 03:00 3.27 317.2 748.66 0.00 13.2
11/13/2019 02:00 3.26 313.3 748.65 0.00 13.8
11/13/2019 01:00 3.26 313.3 748.65 0.00 14.4
11/13/2019 00:00 3.27 317.2 748.66 0.00 15.3
11/12/2019 23:00 3.26 313.3 748.66 0.00 16.4
11/12/2019 22:00 3.27 317.2 748.66 0.00 17.3
11/12/2019 21:00 3.27 317.2 748.65 0.00 19.0
11/12/2019 20:00 3.25 309.4 748.66 0.00 21.9
11/12/2019 19:00 3.26 313.3 748.66 0.00 23.0
11/12/2019 18:00 3.27 317.2 748.67 0.00 24.2
11/12/2019 17:00 3.27 317.2 748.67 0.00 25.0
11/12/2019 16:00 3.26 313.3 748.67 0.00 25.7
11/12/2019 15:00 3.25 309.4 748.67 0.00 24.7
11/12/2019 14:00 3.25 309.4 748.67 0.00 24.8
11/12/2019 13:00 3.26 313.3 748.67 0.00 25.4
11/12/2019 12:00 3.25 309.4 748.66 0.00 25.6
11/12/2019 11:00 3.25 309.4 748.67 0.00 28.3
11/12/2019 10:00 3.25 309.4 748.67 0.00 30.8
11/12/2019 09:00 3.25 309.4 748.67 0.00 32.7
11/12/2019 08:00 3.25 309.4 748.67 0.00 33.4
11/12/2019 07:00 3.26 313.3 748.68 0.00 32.9
11/12/2019 06:00 3.24 305.5 748.68 0.00 32.5
11/12/2019 05:00 3.26 313.3 748.68 0.00 32.1
11/12/2019 04:00 3.28 321.1 748.69 0.00 32.1
11/12/2019 03:00 3.28 321.1 748.69 0.00 32.9
11/12/2019 02:00 3.29 325.1 748.69 0.00 32.8
11/12/2019 01:00 3.27 317.2 748.69 0.00 32.6
11/12/2019 00:00 3.28 321.1 748.69 0.00 33.3
11/11/2019 23:00 3.29 325.1 748.69 0.00 31.3
11/11/2019 22:00 3.29 325.1 748.69 0.00 30.4
11/11/2019 21:00 3.29 325.1 748.69 0.00 30.4
11/11/2019 20:00 3.29 325.1 748.69 0.00 30.7
11/11/2019 19:00 3.29 325.1 748.69 0.00 31.0
11/11/2019 18:00 3.29 325.1 748.69 0.00 30.9
11/11/2019 17:00 3.29 325.1 748.69 0.00 31.1
11/11/2019 16:00 3.29 325.1 748.69 0.00 31.3
11/11/2019 15:00 3.28 321.1 748.68 0.00 34.4
11/11/2019 14:00 3.28 321.1 748.69 0.00 34.6
11/11/2019 13:00 3.29 325.1 748.69 0.00 34.6
11/11/2019 12:00 3.29 325.1 748.69 0.00 33.8
11/11/2019 11:00 3.28 321.1 748.69 0.00 33.6
11/11/2019 10:00 3.29 325.1 748.69 0.00 34.4
11/11/2019 09:00 3.28 321.1 748.70 0.00 34.1
11/11/2019 08:00 3.29 325.1 748.70 0.00 34.6
11/11/2019 07:00 3.29 325.1 748.70 0.00 36.2
11/11/2019 06:00 3.30 329.0 748.71 0.00 39.0
11/11/2019 05:00 3.30 329.0 748.71 0.00 38.9
11/11/2019 04:00 3.30 329.0 748.71 0.00 38.8
11/11/2019 03:00 3.30 329.0 748.71 0.00 38.2
11/11/2019 02:00 3.30 329.0 748.71 0.00 38.3
11/11/2019 01:00 3.30 329.0 748.72 0.00 38.6
11/11/2019 00:00 3.30 329.0 748.72 0.00 38.7
11/10/2019 23:00 3.30 329.0 748.72 0.00 39.5
11/10/2019 22:00 3.30 329.0 748.72 0.00 41.3
11/10/2019 21:00 3.30 329.0 748.72 0.00 41.3
11/10/2019 20:00 3.30 329.0 748.72 0.00 41.5
11/10/2019 19:00 3.31 333.0 748.73 0.00 40.3
11/10/2019 18:00 3.31 333.0 748.73 0.00 41.8
11/10/2019 17:00 3.31 333.0 748.74 0.00 43.2
11/10/2019 16:00 3.31 333.0 748.74 0.00 43.6
11/10/2019 15:00 3.32 336.9 748.74 0.00 42.8
11/10/2019 14:00 3.32 336.9 748.74 0.00 46.9
11/10/2019 13:00 3.32 336.9 748.74 0.00 45.7
11/10/2019 12:00 3.33 340.9 748.74 0.00 41.9
11/10/2019 11:00 3.34 344.9 748.75 0.00 37.6
11/10/2019 10:00 3.35 348.9 748.75 0.00 36.5
11/10/2019 09:00 3.35 348.9 748.75 0.00 40.3
11/10/2019 08:00 3.35 348.9 748.76 0.00 28.5
11/10/2019 07:00 3.35 348.9 748.76 0.00 30.0
11/10/2019 06:00 3.35 348.9 748.76 0.00 32.3
11/10/2019 05:00 3.36 352.9 748.77 0.00 32.5
11/10/2019 04:00 3.36 352.9 748.77 0.00 32.8
11/10/2019 03:00 3.35 348.9 748.77 0.00 32.4
11/10/2019 02:00 3.35 348.9 748.77 0.00 32.4
11/10/2019 01:00 3.36 352.9 748.78 0.00 32.3
11/10/2019 00:00 3.36 352.9 748.78 0.00 32.1
11/09/2019 23:00 3.36 352.9 748.78 0.00 32.4
11/09/2019 22:00 3.36 352.9 748.78 0.00 31.8
11/09/2019 21:00 3.37 356.9 748.79 0.00 32.0
11/09/2019 20:00 3.38 360.9 748.79 0.00 30.7
11/09/2019 19:00 3.38 360.9 748.79 0.00 30.2
11/09/2019 18:00 3.38 360.9 748.79 0.00 31.5
11/09/2019 17:00 3.38 360.9 748.80 0.00 34.3
11/09/2019 16:00 3.39 365.0 748.80 0.00 36.3
11/09/2019 15:00 3.40 369.0 748.80 0.00 35.9
11/09/2019 14:00 3.39 365.0 748.80 0.00 38.5
11/09/2019 13:00 3.40 369.0 748.81 0.00 39.4
11/09/2019 12:00 3.40 369.0 748.80 0.00 35.1
11/09/2019 11:00 3.40 369.0 748.81 0.00 34.5
11/09/2019 10:00 3.41 373.1 748.64 0.00 32.4
11/09/2019 09:00 3.41 373.1 748.81 0.00 33.8
11/09/2019 08:00 3.41 373.1 748.81 0.00 22.9
11/09/2019 07:00 3.41 373.1 748.81 0.00 19.4
11/09/2019 06:00 3.41 373.1 748.81 0.00 21.1
11/09/2019 05:00 3.41 373.1 748.82 0.00 22.6
11/09/2019 04:00 3.40 369.0 748.81 0.00 24.0
11/09/2019 03:00 3.41 373.1 748.82 0.00 26.0
11/09/2019 02:00 3.42 377.1 748.83 0.00 25.5
11/09/2019 01:00 3.42 377.1 748.83 0.00 25.2
11/09/2019 00:00 3.42 377.1 748.83 0.00 22.8
11/08/2019 23:00 3.42 377.1 748.83 0.00 23.0
11/08/2019 22:00 3.42 377.1 748.84 0.00 24.2
11/08/2019 21:00 3.42 377.1 748.83 0.00 24.5
11/08/2019 20:00 3.42 377.1 748.84 0.00 24.8
11/08/2019 19:00 3.41 373.1 748.83 0.00 25.2
11/08/2019 18:00 3.41 373.1 748.83 0.00 27.0
11/08/2019 17:00 3.40 369.0 748.83 0.00 28.7
11/08/2019 16:00 3.39 365.0 748.82 0.00 29.1
11/08/2019 15:00 3.39 365.0 748.83 0.00 26.6
11/08/2019 14:00 3.37 356.9 748.83 0.00 29.0
11/08/2019 13:00 3.38 360.9 748.83 0.00 31.6
11/08/2019 12:00 3.40 369.0 748.84 0.00 29.9
11/08/2019 11:00 3.41 373.1 748.84 0.00 30.9
11/08/2019 10:00 3.42 377.1 748.85 0.00 31.9
11/08/2019 09:00 3.42 377.1 748.85 0.00 28.2
11/08/2019 08:00 3.42 377.1 748.85 0.00 23.8
11/08/2019 07:00 3.43 381.2 748.86 0.00 22.8
11/08/2019 06:00 3.43 381.2 748.86 0.00 24.7
11/08/2019 05:00 3.42 377.1 748.86 0.00 25.3
11/08/2019 04:00 3.44 385.3 748.86 0.00 26.5
11/08/2019 03:00 3.44 385.3 748.86 0.00 27.7
11/08/2019 02:00 3.45 389.4 748.87 0.00 29.5
11/08/2019 01:00 3.44 385.3 748.87 0.00 30.8
11/08/2019 00:00 3.44 385.3 748.87 0.00 32.4
11/07/2019 23:00 3.44 385.3 748.87 0.00 32.4
11/07/2019 22:00 3.44 385.3 748.87 0.01 32.5
11/07/2019 21:00 3.43 381.2 748.87 0.02 33.9
11/07/2019 20:00 3.44 385.3 748.87 0.02 35.0
11/07/2019 19:00 3.44 385.3 748.87 0.02 35.3
11/07/2019 18:00 3.44 385.3 748.87 0.02 36.6
11/07/2019 17:00 3.44 385.3 748.87 0.01 40.5
11/07/2019 16:00 3.44 385.3 748.88 0.01 41.5
11/07/2019 15:00 3.44 385.3 748.88 0.00 42.0
11/07/2019 14:00 3.45 389.4 748.88 0.00 41.7
11/07/2019 13:00 3.45 389.4 748.88 0.00 41.6
11/07/2019 12:00 3.45 389.4 748.88 0.00 41.2
11/07/2019 11:00 3.46 393.5 748.89 0.00 40.3
11/07/2019 10:00 3.47 397.6 748.89 0.00 37.5
11/07/2019 09:00 3.47 397.6 748.89 0.00 36.2
11/07/2019 08:00 3.47 397.6 748.89 0.00 35.4
11/07/2019 07:00 3.47 397.6 748.89 0.00 35.5
11/07/2019 06:00 3.47 397.6 748.90 0.00 35.5
11/07/2019 05:00 3.47 397.6 748.90 0.00 35.8
11/07/2019 04:00 3.47 397.6 748.90 0.00 36.0
11/07/2019 03:00 3.48 401.7 748.90 0.00 35.5
11/07/2019 02:00 3.48 401.7 748.90 0.00 34.3
11/07/2019 01:00 3.48 401.7 748.91 0.00 34.3
11/07/2019 00:00 3.49 405.9 748.91 0.00 33.9
11/06/2019 23:00 3.49 405.9 748.91 0.00 35.1
11/06/2019 22:00 3.50 410.0 748.92 0.00 31.9
11/06/2019 21:00 3.49 405.9 748.92 0.00 31.8
11/06/2019 20:00 3.49 405.9 748.92 0.00 33.6
11/06/2019 19:00 3.50 410.0 748.93 0.00 35.6
11/06/2019 18:00 3.51 414.2 748.93 0.00 38.8
11/06/2019 17:00 3.50 410.0 748.93 0.00 43.3
11/06/2019 16:00 3.50 410.0 748.93 0.00 46.6
11/06/2019 15:00 3.49 405.9 748.94 0.00 48.4
11/06/2019 14:00 3.51 414.2 748.94 0.00 48.2
11/06/2019 13:00 3.53 422.5 748.95 0.00 47.7
11/06/2019 12:00 3.53 422.5 748.96 0.00 46.5
11/06/2019 11:00 3.55 430.9 748.96 0.00 45.0
11/06/2019 10:00 3.54 426.7 748.97 0.00 41.7
11/06/2019 09:00 3.54 426.7 748.97 0.00 40.2
11/06/2019 08:00 3.55 430.9 748.97 0.00 40.0
11/06/2019 07:00 3.54 426.7 748.98 0.00 34.3
11/06/2019 06:00 3.54 426.7 748.98 0.00 34.5
11/06/2019 05:00 3.54 426.7 748.98 0.00 36.4
11/06/2019 04:00 3.55 430.9 748.99 0.00 36.0
11/06/2019 03:00 3.56 435.1 748.99 0.00 36.6
11/06/2019 02:00 3.57 439.3 748.99 0.00 39.0
11/06/2019 01:00 3.57 439.3 748.99 0.00 42.2
11/06/2019 00:00 3.56 435.1 749.00 0.00 44.0
11/05/2019 23:00 3.57 439.3 749.00 0.00 46.6
11/05/2019 22:00 3.56 435.1 749.00 0.00 48.2
11/05/2019 21:00 3.57 439.3 749.01 0.00 47.8
11/05/2019 20:00 3.57 439.3 749.01 0.00 48.9
11/05/2019 19:00 3.59 447.8 749.02 0.00 50.4
11/05/2019 18:00 3.60 452.0 749.02 0.00 51.8
11/05/2019 17:00 3.62 460.5 749.03 0.00 52.1
11/05/2019 16:00 3.63 464.8 749.04 0.00 52.1
11/05/2019 15:00 3.63 464.8 749.04 0.00 53.5
11/05/2019 14:00 3.64 469.1 749.04 0.00 53.9
11/05/2019 13:00 3.65 473.4 749.04 0.00 54.1
11/05/2019 12:00 3.66 477.7 749.05 0.00 49.9
11/05/2019 11:00 3.67 482.0 749.05 0.00 48.6
11/05/2019 10:00 3.67 482.0 749.06 0.00 47.8
11/05/2019 09:00 3.68 486.3 749.06 0.00 46.1
11/05/2019 08:00 3.68 486.3 749.06 0.00 43.8
11/05/2019 07:00 3.68 486.3 749.06 0.00 43.6
11/05/2019 06:00 3.67 482.0 749.07 0.00 43.7
11/05/2019 05:00 3.68 486.3 749.07 0.00 43.7
11/05/2019 04:00 3.70 495.0 749.08 0.00 43.6
11/05/2019 03:00 3.70 495.0 749.08 0.00 43.7
11/05/2019 02:00 3.71 499.4 749.09 0.00 43.6
11/05/2019 01:00 3.72 503.7 749.09 0.00 44.1
11/05/2019 00:00 3.72 503.7 749.10 0.00 43.4
11/04/2019 23:00 3.73 508.1 749.10 0.00 44.9
11/04/2019 22:00 3.75 516.9 749.11 0.00 45.9
11/04/2019 21:00 3.76 521.3 749.12 0.00 46.8
11/04/2019 20:00 3.75 516.9 749.12 0.00 44.6
11/04/2019 19:00 3.76 521.3 749.12 0.00 43.3
11/04/2019 18:00 3.77 525.7 749.13 0.00 43.9
11/04/2019 17:00 3.78 530.1 749.13 0.00 47.5
11/04/2019 16:00 3.78 530.1 749.14 0.00 47.4
11/04/2019 15:00 3.79 534.6 749.15 0.00 46.8
11/04/2019 14:00 3.79 534.6 749.15 0.00 45.9
11/04/2019 13:00 3.80 539.0 749.16 0.00 47.7
11/04/2019 12:00 3.82 547.7 749.16 0.00 46.8
11/04/2019 11:00 3.83 552.1 749.17 0.00 44.3
11/04/2019 10:00 -- -- -- -- --
11/04/2019 09:00 -- -- -- -- --